Time;durP1;ratioP1;P1;durP2;ratioP2;P2;SDS_P1;SDS_P2;PMS_P1;PMS_P2;Temp;Humidity;BMP_temperature;BMP_pressure;BME280_temperature;BME280_humidity;BME280_pressure;Samples;Min_cycle;Max_cycle;Signal;HPM_P1;HPM_P2
2022/02/01 00:00:15;;;;;;;24.13;4.63;;;;;;;5.34;79.17;100530.41;5038052;28;20064;-82
2022/02/01 00:02:47;;;;;;;23.30;5.68;;;;;;;5.33;79.12;100528.75;5039695;28;20054;-82
2022/02/01 00:05:20;;;;;;;18.95;4.03;;;;;;;5.21;78.42;100523.53;5041338;28;20065;-83
2022/02/01 00:07:57;;;;;;;24.67;5.50;;;;;;;5.25;78.98;100528.19;5036650;28;20053;-82
2022/02/01 00:10:39;;;;;;;17.70;4.13;;;;;;;5.18;79.51;100530.41;5041105;28;20084;-82
2022/02/01 00:13:14;;;;;;;25.98;5.20;;;;;;;5.10;77.67;100530.94;5052932;28;20053;-83
2022/02/01 00:37:58;;;;;;;19.73;4.28;;;;;;;4.55;78.20;100562.91;5024891;28;20078;-82
2022/02/01 00:40:26;;;;;;;24.30;4.93;;;;;;;4.47;77.47;100578.91;5057969;28;20048;-82
2022/02/01 00:42:55;;;;;;;16.15;3.80;;;;;;;4.39;77.92;100582.19;5060549;28;20049;-82
2022/02/01 00:45:25;;;;;;;20.30;4.80;;;;;;;4.23;77.34;100592.31;5043531;28;20060;-81
2022/02/01 00:47:53;;;;;;;24.23;4.00;;;;;;;4.29;77.86;100593.16;5030856;28;20056;-82
2022/02/01 00:50:20;;;;;;;23.58;4.20;;;;;;;4.22;77.82;100587.06;5040441;28;20064;-82
2022/02/01 00:52:48;;;;;;;23.38;4.50;;;;;;;4.04;77.36;100578.16;5044284;28;20053;-82
2022/02/01 00:55:15;;;;;;;20.30;4.82;;;;;;;4.03;77.71;100581.19;5061256;28;20466;-82
2022/02/01 00:57:42;;;;;;;20.52;4.65;;;;;;;3.92;77.87;100571.22;5047759;28;20053;-81
2022/02/01 01:00:13;;;;;;;21.23;4.20;;;;;;;3.86;77.60;100567.59;5040271;28;20059;-81
2022/02/01 01:02:41;;;;;;;19.17;4.47;;;;;;;3.84;78.43;100567.03;5047447;28;20041;-81
2022/02/01 01:05:08;;;;;;;26.83;5.00;;;;;;;3.80;77.99;100574.16;5041027;28;20053;-81
2022/02/01 01:07:36;;;;;;;23.33;4.05;;;;;;;3.74;77.85;100576.09;5043552;28;20053;-81
2022/02/01 01:10:05;;;;;;;23.70;4.43;;;;;;;3.77;78.10;100594.81;5047079;28;20053;-82
2022/02/01 01:12:37;;;;;;;21.65;4.22;;;;;;;3.81;78.43;100603.41;5040658;28;20052;-82
2022/02/01 01:15:16;;;;;;;17.65;4.03;;;;;;;3.81;78.35;100617.19;5040946;28;20057;-82
2022/02/01 01:18:20;;;;;;;20.30;4.40;;;;;;;3.87;78.66;100624.38;5042874;28;20053;-82
2022/02/01 01:46:00;;;;;;;18.85;3.90;;;;;;;4.19;79.37;100638.06;5060290;28;20249;-82
2022/02/01 01:54:03;;;;;;;18.33;4.57;;;;;;;4.26;79.02;100618.50;5042172;28;20530;-83
2022/02/01 01:56:31;;;;;;;21.65;4.97;;;;;;;4.26;79.41;100615.75;5042119;28;20041;-82
2022/02/01 01:59:01;;;;;;;21.42;4.57;;;;;;;4.30;79.61;100632.59;5058520;28;20406;-82
2022/02/01 02:01:28;;;;;;;24.90;4.28;;;;;;;4.26;78.84;100638.66;5052515;28;20053;-81
2022/02/01 02:03:56;;;;;;;17.88;3.88;;;;;;;4.25;79.19;100637.00;5035650;28;20124;-81
2022/02/01 02:06:25;;;;;;;16.00;3.85;;;;;;;4.37;79.90;100631.25;5036604;28;20049;-81
2022/02/01 02:08:55;;;;;;;21.63;4.30;;;;;;;4.43;79.73;100627.44;5037018;28;20068;-82
2022/02/01 02:11:28;;;;;;;17.23;4.22;;;;;;;4.44;79.66;100633.75;5054878;28;20463;-82
2022/02/01 02:16:43;;;;;;;20.83;4.82;;;;;;;4.58;79.77;100628.59;5053794;28;20060;-81
2022/02/01 02:19:11;;;;;;;19.33;3.95;;;;;;;4.65;80.03;100618.13;5050555;28;20058;-82
2022/02/01 02:21:41;;;;;;;17.08;3.90;;;;;;;4.67;79.63;100613.97;5035245;28;20053;-83
2022/02/01 02:24:09;;;;;;;18.02;4.65;;;;;;;4.66;79.39;100630.81;5035225;28;20057;-83
2022/02/01 02:26:36;;;;;;;18.25;4.18;;;;;;;4.57;78.22;100632.44;5035784;28;20057;-83
2022/02/01 02:29:04;;;;;;;14.82;3.78;;;;;;;4.70;79.17;100626.41;5034315;28;20061;-83
2022/02/01 02:31:33;;;;;;;23.17;3.60;;;;;;;4.71;79.81;100603.25;5038227;28;20057;-82
2022/02/01 02:34:06;;;;;;;18.10;3.45;;;;;;;4.75;79.37;100612.63;5039958;28;20060;-81
2022/02/01 02:36:36;;;;;;;17.50;4.18;;;;;;;4.73;79.55;100630.56;5022492;28;20102;-82
2022/02/01 02:39:10;;;;;;;13.65;3.78;;;;;;;4.81;79.95;100639.13;5043830;28;20064;-83
2022/02/01 02:41:48;;;;;;;18.02;3.92;;;;;;;4.80;79.42;100631.94;5040803;28;20045;-82
2022/02/01 02:47:02;;;;;;;17.88;3.58;;;;;;;4.84;79.54;100630.31;5061920;28;20116;-82
2022/02/01 02:49:30;;;;;;;19.77;4.20;;;;;;;4.82;79.20;100635.25;5055441;28;20045;-82
2022/02/01 02:51:58;;;;;;;14.50;3.92;;;;;;;4.88;79.54;100633.34;5038975;28;20053;-82
2022/02/01 02:54:28;;;;;;;20.13;4.45;;;;;;;4.99;79.23;100635.03;5039103;28;20057;-82
2022/02/01 02:56:59;;;;;;;11.80;3.63;;;;;;;4.98;79.33;100618.75;5046842;28;20072;-82
2022/02/01 02:59:28;;;;;;;15.63;3.53;;;;;;;4.96;78.78;100623.72;5059259;28;20474;-82
2022/02/01 03:01:57;;;;;;;16.92;3.55;;;;;;;4.93;79.45;100619.56;5043459;28;20056;-82
2022/02/01 03:04:26;;;;;;;18.02;4.70;;;;;;;4.85;78.92;100620.94;5039125;28;20054;-81
2022/02/01 03:06:55;;;;;;;22.55;3.72;;;;;;;4.95;79.43;100628.38;5040276;28;20052;-81
2022/02/01 03:09:23;;;;;;;13.63;3.40;;;;;;;4.95;79.55;100633.09;5038299;28;20064;-82
2022/02/01 03:11:54;;;;;;;15.80;4.43;;;;;;;4.97;79.54;100639.16;5052334;28;20053;-81
2022/02/01 03:14:39;;;;;;;16.85;4.15;;;;;;;5.02;79.62;100628.16;5046099;28;20057;-82
2022/02/01 03:17:17;;;;;;;18.27;4.10;;;;;;;5.05;79.60;100624.84;5039608;28;20049;-81
2022/02/01 03:19:49;;;;;;;18.08;4.40;;;;;;;5.04;79.28;100634.19;5038214;28;20053;-82
2022/02/01 03:22:18;;;;;;;17.55;4.30;;;;;;;5.11;80.00;100632.03;5042830;28;20351;-81
2022/02/01 03:24:45;;;;;;;19.92;4.75;;;;;;;5.12;80.19;100632.84;5037907;28;20605;-82
2022/02/01 03:27:15;;;;;;;20.42;4.65;;;;;;;4.97;79.15;100631.72;5040374;28;20053;-82
2022/02/01 03:29:43;;;;;;;14.75;4.60;;;;;;;4.85;78.75;100631.13;5039161;28;20053;-83
2022/02/01 03:32:10;;;;;;;15.38;4.05;;;;;;;4.86;78.59;100630.84;5044370;28;20049;-82
2022/02/01 03:34:38;;;;;;;17.38;3.88;;;;;;;4.97;79.21;100622.59;5057410;28;20052;-82
2022/02/01 03:37:06;;;;;;;18.35;4.28;;;;;;;5.00;79.39;100608.28;5046938;28;20040;-82
2022/02/01 03:39:33;;;;;;;14.60;3.92;;;;;;;4.93;79.12;100602.16;5038157;28;20053;-82
2022/02/01 03:42:02;;;;;;;17.88;5.00;;;;;;;4.82;79.00;100604.91;5036842;28;20061;-83
2022/02/01 03:44:32;;;;;;;19.95;4.40;;;;;;;4.86;78.53;100608.78;5044554;28;20045;-81
2022/02/01 03:47:02;;;;;;;23.00;5.30;;;;;;;4.96;79.00;100607.16;5054313;28;20049;-83
2022/02/01 03:49:31;;;;;;;14.57;4.28;;;;;;;4.85;78.34;100614.56;5053626;28;20049;-82
2022/02/01 03:51:59;;;;;;;21.80;5.53;;;;;;;4.83;79.18;100619.53;5039612;28;20060;-83
2022/02/01 03:54:28;;;;;;;18.17;5.53;;;;;;;4.82;79.36;100607.66;5037445;28;20061;-82
2022/02/01 03:56:57;;;;;;;14.95;3.60;;;;;;;4.84;79.22;100601.88;5040201;28;20058;-82
2022/02/01 03:59:24;;;;;;;14.82;4.40;;;;;;;4.81;79.42;100603.25;5046822;28;20053;-82
2022/02/01 04:01:56;;;;;;;15.18;4.32;;;;;;;4.78;79.55;100590.00;5036781;28;20056;-83
2022/02/01 04:04:24;;;;;;;18.50;5.15;;;;;;;4.75;78.68;100593.31;5032003;28;20501;-82
2022/02/01 04:06:52;;;;;;;16.50;4.40;;;;;;;4.70;79.41;100604.31;5018979;28;20065;-82
2022/02/01 04:09:21;;;;;;;21.73;5.00;;;;;;;4.65;79.50;100596.03;5045540;28;20064;-82
2022/02/01 04:11:49;;;;;;;22.17;5.70;;;;;;;4.58;78.88;100596.31;5042429;28;20056;-82
2022/02/01 04:14:21;;;;;;;17.42;4.75;;;;;;;4.68;79.07;100585.31;5037556;28;20163;-82
2022/02/01 04:16:48;;;;;;;15.95;4.40;;;;;;;4.71;79.50;100567.38;5050313;28;20067;-82
2022/02/01 04:19:17;;;;;;;16.33;4.63;;;;;;;4.61;79.37;100568.16;5056882;28;20406;-83
2022/02/01 04:21:53;;;;;;;14.80;4.90;;;;;;;4.59;79.66;100575.06;5043756;28;20049;-83
2022/02/01 04:24:20;;;;;;;15.77;4.07;;;;;;;4.44;78.19;100573.09;5037377;28;20053;-83
2022/02/01 04:26:48;;;;;;;16.08;4.50;;;;;;;4.48;78.43;100574.22;5038458;28;20037;-81
2022/02/01 04:29:15;;;;;;;17.20;4.40;;;;;;;4.52;79.02;100571.75;5038023;28;20379;-82
2022/02/01 04:31:43;;;;;;;16.15;4.13;;;;;;;4.59;79.40;100572.31;5045334;28;20053;-82
2022/02/01 04:34:10;;;;;;;20.20;5.03;;;;;;;4.64;79.23;100569.53;5037238;28;20045;-83
2022/02/01 04:36:39;;;;;;;21.48;5.68;;;;;;;4.57;79.37;100571.75;5041160;28;20049;-82
2022/02/01 04:39:07;;;;;;;15.75;4.38;;;;;;;4.42;79.05;100553.22;5036646;28;20053;-83
2022/02/01 04:41:35;;;;;;;13.65;4.00;;;;;;;4.39;78.43;100542.72;5039948;28;20791;-82
2022/02/01 04:44:02;;;;;;;15.70;4.32;;;;;;;4.31;78.51;100554.31;5038870;28;20053;-82
2022/02/01 04:46:30;;;;;;;16.27;4.32;;;;;;;4.29;79.17;100546.28;5037141;28;20060;-82
2022/02/01 04:49:00;;;;;;;18.80;3.58;;;;;;;4.16;77.60;100538.50;5036402;28;20068;-82
2022/02/01 04:51:30;;;;;;;11.32;4.18;;;;;;;4.14;78.99;100535.22;5038229;28;20057;-82
2022/02/01 04:53:58;;;;;;;8.65;3.20;;;;;;;4.18;79.02;100541.81;5048219;28;20053;-82
2022/02/01 04:56:26;;;;;;;11.93;3.20;;;;;;;4.28;79.90;100552.91;5048075;28;20052;-81
2022/02/01 04:58:54;;;;;;;17.55;4.22;;;;;;;4.22;79.43;100559.50;5036279;28;20057;-81
2022/02/01 05:01:30;;;;;;;14.95;4.32;;;;;;;4.19;79.70;100560.03;5041174;28;20380;-82
2022/02/01 05:03:57;;;;;;;13.82;3.80;;;;;;;4.28;80.00;100563.94;5027809;28;20494;-81
2022/02/01 05:06:28;;;;;;;17.75;4.25;;;;;;;4.37;79.68;100559.56;5036991;28;20054;-82
2022/02/01 05:08:55;;;;;;;13.50;3.58;;;;;;;4.29;79.73;100576.63;5053921;28;20052;-82
2022/02/01 05:11:24;;;;;;;15.57;3.85;;;;;;;4.29;79.73;100562.03;5038745;28;20053;-82
2022/02/01 05:16:43;;;;;;;12.10;4.03;;;;;;;4.23;79.62;100553.72;5038664;28;20532;-82
2022/02/01 05:19:17;;;;;;;15.90;4.15;;;;;;;4.24;79.42;100555.38;5039312;28;20052;-82
2022/02/01 05:21:45;;;;;;;11.23;4.00;;;;;;;4.38;79.57;100583.25;5039325;28;20053;-82
2022/02/01 05:24:13;;;;;;;12.38;4.07;;;;;;;4.29;78.40;100592.34;5036609;28;20057;-82
2022/02/01 05:26:43;;;;;;;13.80;4.78;;;;;;;4.23;79.05;100570.25;5046803;28;20061;-82
2022/02/01 05:29:10;;;;;;;;;;;;;;;4.11;77.11;100577.91;5038336;28;20057;-82
2022/02/01 05:31:38;;;;;;;14.63;5.15;;;;;;;4.14;77.94;100580.16;5035783;28;20318;-82
2022/02/01 05:34:05;;;;;;;12.75;4.85;;;;;;;4.34;79.62;100584.91;5036455;28;20057;-82
2022/02/01 05:36:33;;;;;;;16.00;4.65;;;;;;;4.29;78.99;100584.91;5035871;28;20049;-82
2022/02/01 05:39:00;;;;;;;12.75;5.45;;;;;;;4.36;78.31;100573.63;5037103;28;20049;-82
2022/02/01 05:41:28;;;;;;;17.42;5.30;;;;;;;4.29;78.40;100571.13;5036505;28;20060;-82
2022/02/01 05:43:57;;;;;;;15.48;5.65;;;;;;;4.41;79.04;100563.44;5035967;28;20474;-82
2022/02/01 05:46:24;;;;;;;18.05;6.32;;;;;;;4.35;79.45;100561.75;5035742;28;20045;-82
2022/02/01 05:48:52;;;;;;;19.08;5.22;;;;;;;4.23;78.27;100559.22;5035865;28;20490;-82
2022/02/01 05:51:19;;;;;;;18.25;6.50;;;;;;;4.22;78.17;100546.56;5039589;28;20049;-82
2022/02/01 05:53:46;;;;;;;21.10;6.50;;;;;;;4.31;78.48;100538.59;5034520;28;20064;-81
2022/02/01 05:56:15;;;;;;;17.35;6.10;;;;;;;4.12;77.96;100551.22;5041018;28;20067;-82
2022/02/01 05:58:43;;;;;;;19.38;5.43;;;;;;;4.28;78.70;100552.91;5037568;28;20049;-81
2022/02/01 06:01:12;;;;;;;16.17;4.78;;;;;;;4.23;77.54;100547.38;5037659;28;20053;-81
2022/02/01 06:03:40;;;;;;;;;;;;;;;4.32;77.41;100555.94;5039252;28;20049;-81
2022/02/01 06:06:07;;;;;;;17.48;4.85;;;;;;;4.30;79.07;100560.91;5044318;28;20400;-81
2022/02/01 06:08:35;;;;;;;13.40;4.70;;;;;;;4.36;78.68;100555.13;5036035;28;20052;-83
2022/02/01 06:11:03;;;;;;;12.45;5.45;;;;;;;4.17;76.09;100518.13;5036495;28;20064;-82
2022/02/01 06:13:35;;;;;;;12.98;4.72;;;;;;;4.31;77.25;100505.50;5029189;28;20049;-82
2022/02/01 06:16:02;;;;;;;17.50;4.75;;;;;;;4.30;77.66;100478.19;5044145;28;20057;-81
2022/02/01 06:18:31;;;;;;;16.60;5.82;;;;;;;4.29;78.77;100477.38;5046790;28;20055;-82
2022/02/01 06:21:00;;;;;;;18.13;5.25;;;;;;;4.35;78.57;100478.22;5039982;28;20049;-82
2022/02/01 06:23:28;;;;;;;12.00;4.93;;;;;;;4.35;78.85;100484.56;5037218;28;20072;-81
2022/02/01 06:25:56;;;;;;;14.25;4.72;;;;;;;4.31;78.74;100491.72;5043198;28;20049;-81
2022/02/01 06:28:26;;;;;;;11.18;4.68;;;;;;;4.33;78.47;100483.19;5038105;28;20056;-83
2022/02/01 06:30:54;;;;;;;14.68;5.28;;;;;;;4.23;78.33;100489.47;5044055;28;20049;-82
2022/02/01 06:33:22;;;;;;;11.93;4.88;;;;;;;4.33;78.92;100495.03;5049229;28;20057;-83
2022/02/01 06:35:52;;;;;;;9.90;4.20;;;;;;;4.34;78.44;100498.59;5037689;28;20050;-83
2022/02/01 06:38:19;;;;;;;12.95;4.40;;;;;;;4.31;79.15;100499.16;5039750;28;20058;-85
2022/02/01 06:40:48;;;;;;;11.57;3.97;;;;;;;4.37;78.57;100501.66;5038847;28;20053;-84
2022/02/01 06:43:16;;;;;;;13.82;5.63;;;;;;;4.42;79.41;100504.41;5040655;28;20049;-84
2022/02/01 06:45:44;;;;;;;16.25;5.30;;;;;;;4.45;78.97;100489.25;5042574;28;20045;-85
2022/02/01 06:48:13;;;;;;;13.88;5.20;;;;;;;4.22;78.31;100482.28;5050479;28;20491;-83
2022/02/01 06:50:40;;;;;;;13.88;5.45;;;;;;;4.30;78.94;100484.53;5036961;28;20076;-83
2022/02/01 06:53:09;;;;;;;13.70;5.45;;;;;;;4.26;78.98;100486.16;5051008;28;20064;-83
2022/02/01 06:55:45;;;;;;;16.75;5.75;;;;;;;4.38;79.00;100480.41;5046231;28;20057;-83
2022/02/01 06:58:13;;;;;;;16.58;7.82;;;;;;;4.33;78.42;100495.03;5036096;28;20045;-83
2022/02/01 07:00:41;;;;;;;14.13;5.70;;;;;;;4.25;76.90;100488.09;5036355;28;20065;-83
2022/02/01 07:03:09;;;;;;;16.02;6.53;;;;;;;4.28;78.51;100481.22;5033835;28;20045;-84
2022/02/01 07:05:36;;;;;;;16.10;6.80;;;;;;;4.44;79.29;100473.81;5037425;28;20061;-84
2022/02/01 07:08:04;;;;;;;16.95;6.18;;;;;;;4.55;78.63;100489.25;5044569;28;20049;-83
2022/02/01 07:10:33;;;;;;;14.05;6.72;;;;;;;4.53;78.28;100466.63;5048109;28;20049;-83
2022/02/01 07:13:01;;;;;;;16.35;6.68;;;;;;;4.57;78.09;100477.97;5055050;28;20041;-84
2022/02/01 07:15:29;;;;;;;15.35;6.80;;;;;;;4.57;77.66;100466.94;5038587;28;20378;-78
2022/02/01 07:17:56;;;;;;;19.48;7.93;;;;;;;4.24;78.84;100471.81;5033270;28;20060;-77
2022/02/01 07:20:25;;;;;;;14.95;6.57;;;;;;;4.53;78.36;100457.53;5047242;28;20049;-84
2022/02/01 07:22:52;;;;;;;18.08;6.72;;;;;;;4.63;76.15;100468.59;5035924;28;20042;-84
2022/02/01 07:25:28;;;;;;;19.33;5.80;;;;;;;4.52;76.01;100461.41;5037033;28;20061;-85
2022/02/01 07:28:00;;;;;;;13.55;5.40;;;;;;;4.59;75.55;100481.28;5051320;28;20062;-85
2022/02/01 07:30:27;;;;;;;13.13;5.80;;;;;;;4.62;75.92;100489.84;5039959;28;20060;-85
2022/02/01 07:32:59;;;;;;;13.23;5.20;;;;;;;4.61;76.39;100495.63;5042452;28;20050;-85
2022/02/01 07:35:26;;;;;;;14.00;6.18;;;;;;;4.74;77.16;100492.31;5033515;28;20072;-85
2022/02/01 07:37:54;;;;;;;11.68;5.43;;;;;;;4.67;75.70;100470.50;5039193;28;20494;-85
2022/02/01 07:40:22;;;;;;;12.68;5.65;;;;;;;4.75;75.98;100468.31;5053625;28;20067;-85
2022/02/01 07:42:52;;;;;;;10.48;5.15;;;;;;;4.79;76.25;100459.22;5053428;28;20045;-85
2022/02/01 07:45:25;;;;;;;15.43;5.07;;;;;;;4.62;75.59;100447.59;5050893;28;20053;-85
2022/02/01 07:47:52;;;;;;;22.50;5.32;;;;;;;4.67;75.38;100458.66;5054858;28;20046;-85
2022/02/01 07:50:20;;;;;;;10.27;4.30;;;;;;;4.84;74.81;100447.34;5040669;28;20056;-85
2022/02/01 07:52:47;;;;;;;15.20;5.53;;;;;;;4.63;74.82;100457.56;5039511;28;20054;-84
2022/02/01 07:55:15;;;;;;;13.77;5.10;;;;;;;4.79;76.59;100448.19;5045818;28;20053;-83
2022/02/01 07:57:43;;;;;;;17.98;5.43;;;;;;;4.72;74.97;100436.56;5058053;28;20025;-82
2022/02/01 08:00:12;;;;;;;12.93;5.13;;;;;;;4.57;74.58;100434.66;5051015;28;20474;-85
2022/02/01 08:02:43;;;;;;;12.18;5.18;;;;;;;4.86;76.28;100443.19;5041542;28;20056;-84
2022/02/01 08:05:11;;;;;;;13.23;5.32;;;;;;;5.07;76.70;100437.66;5036416;28;20064;-86
2022/02/01 08:07:39;;;;;;;15.45;6.72;;;;;;;4.86;75.72;100442.38;5044874;28;20068;-84
2022/02/01 08:10:10;;;;;;;10.50;5.57;;;;;;;5.03;76.13;100442.91;5038042;28;20064;-86
2022/02/01 08:18:25;;;;;;;11.88;5.15;;;;;;;5.02;75.23;100432.97;5050123;28;20065;-86
2022/02/01 08:20:56;;;;;;;11.40;6.30;;;;;;;5.14;75.72;100432.66;5041723;28;20045;-86
2022/02/01 08:23:24;;;;;;;13.75;5.55;;;;;;;4.99;73.81;100424.41;5046175;28;20041;-85
2022/02/01 08:25:52;;;;;;;13.85;5.97;;;;;;;5.07;75.00;100416.41;5055558;28;20468;-85
2022/02/01 08:28:21;;;;;;;12.55;6.57;;;;;;;5.28;76.62;100413.59;5046012;28;20072;-86
2022/02/01 08:30:50;;;;;;;19.45;6.70;;;;;;;5.09;75.72;100416.94;5044771;28;20557;-84
2022/02/01 08:33:19;;;;;;;15.57;7.33;;;;;;;5.11;77.98;100394.59;5043464;28;20069;-84
2022/02/01 08:35:46;;;;;;;12.68;7.13;;;;;;;5.26;77.82;100396.47;5041375;28;20056;-85
2022/02/01 08:38:14;;;;;;;16.10;7.00;;;;;;;5.19;78.44;100385.72;5037822;28;20429;-86
2022/02/01 08:40:41;;;;;;;14.77;7.43;;;;;;;5.06;78.26;100375.25;5038819;28;20049;-85
2022/02/01 08:43:08;;;;;;;13.82;6.97;;;;;;;5.21;78.33;100366.94;5039702;28;20379;-83
2022/02/01 08:45:36;;;;;;;11.48;7.07;;;;;;;5.17;78.24;100354.00;5043588;28;20055;-84
2022/02/01 08:48:07;;;;;;;14.63;7.40;;;;;;;5.14;78.74;100340.72;5055867;28;20049;-83
2022/02/01 08:50:37;;;;;;;10.73;6.63;;;;;;;5.20;78.63;100353.41;5037543;28;20061;-84
2022/02/01 08:53:14;;;;;;;16.92;8.40;;;;;;;5.09;78.88;100355.38;5044450;28;20045;-84
2022/02/01 08:56:01;;;;;;;16.90;7.78;;;;;;;5.12;79.34;100346.53;5034758;28;20049;-86
2022/02/01 08:58:28;;;;;;;10.00;5.30;;;;;;;4.89;78.56;100350.72;5031785;28;20061;-85
2022/02/01 09:00:56;;;;;;;12.90;6.85;;;;;;;4.92;79.17;100350.19;5053417;28;20049;-85
2022/02/01 09:03:25;;;;;;;10.98;6.55;;;;;;;5.08;78.70;100345.44;5044820;28;20065;-86
2022/02/01 09:05:54;;;;;;;8.80;5.75;;;;;;;5.15;79.62;100331.34;5055993;28;20048;-86
2022/02/01 09:08:25;;;;;;;9.50;5.70;;;;;;;5.04;79.54;100330.53;5044457;28;20053;-86
2022/02/01 09:10:53;;;;;;;13.48;6.30;;;;;;;5.15;80.44;100321.13;5050190;28;20053;-84
2022/02/01 09:13:21;;;;;;;9.00;5.25;;;;;;;5.24;79.11;100315.84;5043469;28;20053;-84
2022/02/01 09:15:48;;;;;;;10.02;6.00;;;;;;;5.22;80.27;100290.44;5043323;28;20375;-86
2022/02/01 09:18:15;;;;;;;10.13;6.45;;;;;;;5.07;80.20;100291.34;5046650;28;20069;-83
2022/02/01 09:20:43;;;;;;;9.82;5.75;;;;;;;5.09;80.03;100291.88;5042770;28;20065;-84
2022/02/01 09:23:11;;;;;;;20.80;9.70;;;;;;;5.02;80.36;100274.81;5040029;28;20068;-84
2022/02/01 09:25:39;;;;;;;11.85;6.88;;;;;;;5.18;80.67;100279.13;5043129;28;20049;-84
2022/02/01 09:28:09;;;;;;;10.55;5.35;;;;;;;5.03;79.81;100260.72;5041066;28;20072;-84
2022/02/01 09:30:38;;;;;;;10.35;6.60;;;;;;;5.01;81.12;100265.69;5045358;28;20071;-85
2022/02/01 09:33:05;;;;;;;9.93;5.70;;;;;;;5.26;81.40;100239.88;5058148;28;20053;-84
2022/02/01 09:35:33;;;;;;;7.90;5.03;;;;;;;5.20;82.39;100229.97;5050500;28;20060;-83
2022/02/01 09:38:00;;;;;;;7.75;4.72;;;;;;;5.25;81.74;100231.91;5047047;28;20060;-84
2022/02/01 09:40:29;;;;;;;4.85;3.35;;;;;;;5.43;80.97;100222.94;5043025;28;20058;-84
2022/02/01 09:42:56;;;;;;;7.15;4.10;;;;;;;5.40;81.48;100229.06;5043999;28;20053;-84
2022/02/01 09:45:24;;;;;;;5.40;3.65;;;;;;;5.42;80.59;100201.97;5051365;28;20518;-85
2022/02/01 09:47:51;;;;;;;5.53;3.30;;;;;;;5.49;80.43;100202.47;5049712;28;20045;-85
2022/02/01 09:50:18;;;;;;;5.65;3.35;;;;;;;5.43;79.96;100198.09;5065201;28;20413;-85
2022/02/01 09:52:46;;;;;;;5.28;3.10;;;;;;;5.45;79.47;100204.16;5059995;28;20045;-84
2022/02/01 09:55:14;;;;;;;3.85;2.63;;;;;;;5.38;80.29;100211.13;5057464;28;20050;-85
2022/02/01 09:57:44;;;;;;;3.58;2.30;;;;;;;5.54;79.06;100181.44;5049019;28;20060;-84
2022/02/01 10:00:16;;;;;;;3.92;2.78;;;;;;;5.56;79.74;100171.75;5042463;28;20064;-85
2022/02/01 10:02:47;;;;;;;4.68;2.90;;;;;;;5.71;79.70;100179.06;5044584;28;20052;-85
2022/02/01 10:05:16;;;;;;;4.28;2.58;;;;;;;5.76;80.70;100167.19;5042240;28;20052;-86
2022/02/01 10:07:51;;;;;;;3.38;2.10;;;;;;;5.66;79.57;100159.78;5043608;28;20058;-85
2022/02/01 10:10:19;;;;;;;2.72;2.22;;;;;;;5.87;79.58;100154.91;5057803;28;20056;-85
2022/02/01 10:13:02;;;;;;;4.07;2.85;;;;;;;5.79;79.57;100161.06;5057219;28;20053;-85
2022/02/01 10:15:34;;;;;;;2.70;2.10;;;;;;;5.57;78.35;100148.53;5065886;28;20055;-85
2022/02/01 10:18:04;;;;;;;3.70;2.80;;;;;;;5.64;79.13;100143.50;5045412;28;20049;-85
2022/02/01 10:20:41;;;;;;;;;;;;;;;5.43;80.23;100125.44;5047526;28;20056;-85
2022/02/01 10:23:21;;;;;;;3.45;2.88;;;;;;;5.57;79.28;100109.03;5042537;28;19936;-85
2022/02/01 10:26:03;;;;;;;3.33;2.75;;;;;;;5.45;78.99;100103.88;5050043;28;20049;-85
2022/02/01 10:28:49;;;;;;;3.53;2.50;;;;;;;5.65;79.00;100100.94;5042382;28;20056;-84
2022/02/01 10:31:22;;;;;;;3.25;2.90;;;;;;;5.51;80.14;100094.44;5050225;28;20054;-86
2022/02/01 10:34:02;;;;;;;5.18;3.40;;;;;;;5.62;79.95;100090.47;5024512;28;20058;-84
2022/02/01 10:36:39;;;;;;;4.50;3.40;;;;;;;5.63;80.98;100092.13;5042038;28;20049;-85
2022/02/01 10:39:18;;;;;;;4.68;3.42;;;;;;;5.63;80.40;100074.72;5051478;28;20049;-86
2022/02/01 10:41:57;;;;;;;8.07;5.00;;;;;;;5.73;81.20;100077.38;5059264;28;20056;-86
2022/02/01 10:44:38;;;;;;;4.70;3.70;;;;;;;5.84;79.48;100069.81;5046899;28;20057;-86
2022/02/01 10:47:08;;;;;;;3.50;2.72;;;;;;;5.89;80.01;100089.09;5045409;28;20053;-84
2022/02/01 10:49:37;;;;;;;3.58;2.88;;;;;;;5.61;79.96;100058.44;5060197;28;20397;-83
2022/02/01 10:52:06;;;;;;;3.60;2.90;;;;;;;5.46;80.85;100036.50;5044548;28;20064;-85
2022/02/01 10:54:35;;;;;;;3.90;3.10;;;;;;;5.43;81.74;100037.06;5049948;28;20056;-85
2022/02/01 10:57:05;;;;;;;3.83;3.42;;;;;;;5.36;82.57;100029.13;5062272;28;20059;-85
2022/02/01 10:59:34;;;;;;;;;;;;;;;5.50;82.60;100020.97;5049074;28;20053;-84
2022/02/01 11:02:03;;;;;;;3.92;3.22;;;;;;;5.62;82.80;100020.56;5051032;28;19921;-84
2022/02/01 11:04:32;;;;;;;4.82;3.80;;;;;;;5.34;83.37;100025.81;5064398;28;20060;-86
2022/02/01 11:07:00;;;;;;;3.97;3.33;;;;;;;5.52;83.31;100015.97;5047352;28;20049;-84
2022/02/01 11:09:30;;;;;;;4.18;3.60;;;;;;;5.70;82.73;100009.69;5043325;28;21059;-82
2022/02/01 11:12:05;;;;;;;5.20;3.95;;;;;;;5.60;83.96;100009.81;5050366;28;20054;-84
2022/02/01 11:14:40;;;;;;;4.65;3.70;;;;;;;5.92;83.22;100007.53;5048673;28;20046;-83
2022/02/01 11:17:10;;;;;;;5.50;3.50;;;;;;;5.53;84.23;100005.75;5046069;28;20063;-83
2022/02/01 11:19:51;;;;;;;;;;;;;;;5.68;84.64;100008.34;5055111;28;20068;-83
2022/02/01 11:22:22;;;;;;;4.03;3.15;;;;;;;5.89;82.71;99989.59;5054117;28;19928;-84
2022/02/01 11:24:54;;;;;;;4.30;3.58;;;;;;;5.95;83.69;99984.88;5052197;28;20466;-83
2022/02/01 11:27:47;;;;;;;4.20;3.33;;;;;;;6.03;83.61;100001.63;5050347;28;20055;-83
2022/02/01 11:30:16;;;;;;;5.68;3.33;;;;;;;5.83;84.08;99991.59;5045113;28;20067;-83
2022/02/01 11:32:50;;;;;;;5.18;3.25;;;;;;;5.97;83.90;99968.81;5050288;28;20049;-83
2022/02/01 11:35:24;;;;;;;5.45;3.50;;;;;;;6.14;83.15;99969.13;5042511;28;20334;-83
2022/02/01 11:37:53;;;;;;;5.15;3.30;;;;;;;6.10;84.01;99957.00;5048498;28;20053;-82
2022/02/01 11:40:22;;;;;;;3.47;2.72;;;;;;;6.13;82.62;99956.41;5044249;28;20391;-82
2022/02/01 11:43:00;;;;;;;4.60;3.40;;;;;;;6.02;83.93;99961.25;5047479;28;20053;-82
2022/02/01 11:45:33;;;;;;;5.18;3.90;;;;;;;5.83;84.04;99933.56;5045216;28;20357;-84
2022/02/01 11:48:03;;;;;;;5.60;3.70;;;;;;;5.86;84.79;99918.34;5041129;28;20046;-82
2022/02/01 11:50:30;;;;;;;5.05;3.55;;;;;;;5.95;84.89;99935.13;5044463;28;20049;-83
2022/02/01 11:53:02;;;;;;;5.50;3.53;;;;;;;6.06;84.08;99928.31;5042396;28;20061;-83
2022/02/01 11:55:31;;;;;;;3.70;3.13;;;;;;;6.04;85.05;99936.09;5006440;28;20050;-83
2022/02/01 11:58:06;;;;;;;3.97;3.13;;;;;;;6.32;84.13;99920.50;5019184;28;20470;-84
2022/02/01 12:00:40;;;;;;;6.75;3.60;;;;;;;6.28;83.78;99933.28;5023297;28;20065;-82
2022/02/01 12:03:10;;;;;;;3.50;2.97;;;;;;;6.38;83.73;99916.50;5027157;28;20053;-83
2022/02/01 12:05:38;;;;;;;;;;;;;;;6.19;84.46;99918.44;5023174;28;20401;-84
2022/02/01 12:08:11;;;;;;;3.17;2.67;;;;;;;6.53;83.57;99915.47;5020566;28;19978;-83
2022/02/01 12:10:41;;;;;;;4.60;3.40;;;;;;;6.66;83.70;99913.88;5021389;28;20057;-83
2022/02/01 12:13:09;;;;;;;;;;;;;;;6.62;82.46;99896.22;5018846;28;20058;-82
2022/02/01 12:15:39;;;;;;;4.53;3.08;;;;;;;6.68;83.14;99912.44;5021213;28;20274;-82
2022/02/01 12:18:22;;;;;;;3.22;2.53;;;;;;;6.44;83.94;99884.06;5017920;28;20054;-82
2022/02/01 12:21:07;;;;;;;4.32;2.35;;;;;;;6.78;82.95;99871.84;5008827;28;20046;-81
2022/02/01 12:23:35;;;;;;;3.42;2.47;;;;;;;6.81;82.97;99858.25;5017056;28;20382;-83
2022/02/01 12:26:02;;;;;;;3.95;2.40;;;;;;;6.59;84.13;99858.06;5021081;28;20148;-83
2022/02/01 12:28:31;;;;;;;3.55;2.20;;;;;;;6.68;83.45;99861.81;5021594;28;20062;-84
2022/02/01 12:31:11;;;;;;;4.75;2.45;;;;;;;6.61;83.24;99878.78;5014765;28;20072;-82
2022/02/01 12:33:45;;;;;;;2.92;2.10;;;;;;;6.54;83.84;99859.00;5018733;28;20068;-83
2022/02/01 12:36:21;;;;;;;4.28;2.35;;;;;;;6.47;84.44;99837.25;5025396;28;20072;-84
2022/02/01 12:38:50;;;;;;;4.47;2.22;;;;;;;6.67;84.25;99838.81;5025396;28;20058;-82
2022/02/01 12:41:20;;;;;;;2.67;1.83;;;;;;;6.74;84.19;99832.91;5024258;28;20041;-83
2022/02/01 12:46:46;;;;;;;2.55;1.75;;;;;;;6.64;84.11;99822.84;4985940;28;20418;-83
2022/02/01 12:49:14;;;;;;;3.78;1.98;;;;;;;6.66;84.78;99800.41;5018354;28;20050;-83
2022/02/01 12:51:44;;;;;;;2.88;1.85;;;;;;;6.82;84.24;99798.97;5024589;28;20065;-81